sensor_id;sensor_type;location;lat;lon;timestamp;temperature;humidity
54485;DHT22;45006;56.958;24.166;2023-07-13T00:01:54;24.70;66.90
54485;DHT22;45006;56.958;24.166;2023-07-13T00:04:23;24.70;66.90
54485;DHT22;45006;56.958;24.166;2023-07-13T00:06:52;24.80;67.00
54485;DHT22;45006;56.958;24.166;2023-07-13T00:09:20;24.70;66.90
54485;DHT22;45006;56.958;24.166;2023-07-13T00:11:54;24.70;67.00
54485;DHT22;45006;56.958;24.166;2023-07-13T00:14:21;24.70;67.00
54485;DHT22;45006;56.958;24.166;2023-07-13T00:16:49;24.70;66.90
54485;DHT22;45006;56.958;24.166;2023-07-13T00:19:16;24.70;67.00
54485;DHT22;45006;56.958;24.166;2023-07-13T00:21:46;24.70;67.00
54485;DHT22;45006;56.958;24.166;2023-07-13T00:24:15;24.70;67.00
54485;DHT22;45006;56.958;24.166;2023-07-13T00:26:43;24.70;67.00
54485;DHT22;45006;56.958;24.166;2023-07-13T00:29:13;24.70;66.90
54485;DHT22;45006;56.958;24.166;2023-07-13T00:31:41;24.70;67.00
54485;DHT22;45006;56.958;24.166;2023-07-13T00:34:08;24.70;66.90
54485;DHT22;45006;56.958;24.166;2023-07-13T00:36:35;24.70;66.90
54485;DHT22;45006;56.958;24.166;2023-07-13T00:39:02;24.70;67.00
54485;DHT22;45006;56.958;24.166;2023-07-13T00:41:31;24.70;66.90
54485;DHT22;45006;56.958;24.166;2023-07-13T00:43:58;24.70;67.00
54485;DHT22;45006;56.958;24.166;2023-07-13T00:46:31;24.70;66.90
54485;DHT22;45006;56.958;24.166;2023-07-13T00:49:02;24.70;67.00
54485;DHT22;45006;56.958;24.166;2023-07-13T00:51:36;24.70;67.00
54485;DHT22;45006;56.958;24.166;2023-07-13T00:54:06;24.70;66.90
54485;DHT22;45006;56.958;24.166;2023-07-13T00:56:35;24.70;66.90
54485;DHT22;45006;56.958;24.166;2023-07-13T00:59:06;24.70;66.90
54485;DHT22;45006;56.958;24.166;2023-07-13T01:01:35;24.70;67.00
54485;DHT22;45006;56.958;24.166;2023-07-13T01:04:03;24.70;67.00
54485;DHT22;45006;56.958;24.166;2023-07-13T01:06:36;24.70;67.00
54485;DHT22;45006;56.958;24.166;2023-07-13T01:09:05;24.70;67.00
54485;DHT22;45006;56.958;24.166;2023-07-13T01:11:33;24.70;67.00
54485;DHT22;45006;56.958;24.166;2023-07-13T01:14:03;24.70;67.00
54485;DHT22;45006;56.958;24.166;2023-07-13T01:16:35;24.70;67.00
54485;DHT22;45006;56.958;24.166;2023-07-13T01:19:13;24.70;67.00
54485;DHT22;45006;56.958;24.166;2023-07-13T01:21:50;24.70;67.00
54485;DHT22;45006;56.958;24.166;2023-07-13T01:24:18;24.70;67.00
54485;DHT22;45006;56.958;24.166;2023-07-13T01:26:45;24.70;67.00
54485;DHT22;45006;56.958;24.166;2023-07-13T01:29:12;24.70;67.00
54485;DHT22;45006;56.958;24.166;2023-07-13T01:31:39;24.70;67.00
54485;DHT22;45006;56.958;24.166;2023-07-13T01:34:06;24.70;67.00
54485;DHT22;45006;56.958;24.166;2023-07-13T01:36:33;24.70;67.00
54485;DHT22;45006;56.958;24.166;2023-07-13T01:39:00;24.70;67.00
54485;DHT22;45006;56.958;24.166;2023-07-13T01:41:27;24.70;67.00
54485;DHT22;45006;56.958;24.166;2023-07-13T01:43:54;24.70;67.00
54485;DHT22;45006;56.958;24.166;2023-07-13T01:46:21;24.70;67.00
54485;DHT22;45006;56.958;24.166;2023-07-13T01:48:50;24.70;67.00
54485;DHT22;45006;56.958;24.166;2023-07-13T01:51:20;24.70;67.00
54485;DHT22;45006;56.958;24.166;2023-07-13T01:53:47;24.70;67.00
54485;DHT22;45006;56.958;24.166;2023-07-13T01:56:14;24.70;67.00
54485;DHT22;45006;56.958;24.166;2023-07-13T01:58:41;24.70;67.00
54485;DHT22;45006;56.958;24.166;2023-07-13T02:01:08;24.70;67.00
54485;DHT22;45006;56.958;24.166;2023-07-13T02:03:35;24.70;67.00
54485;DHT22;45006;56.958;24.166;2023-07-13T02:06:03;24.70;67.00
54485;DHT22;45006;56.958;24.166;2023-07-13T02:08:32;24.70;67.00
54485;DHT22;45006;56.958;24.166;2023-07-13T02:10:59;24.70;67.00
54485;DHT22;45006;56.958;24.166;2023-07-13T02:13:27;24.70;67.00
54485;DHT22;45006;56.958;24.166;2023-07-13T02:15:54;24.70;67.00
54485;DHT22;45006;56.958;24.166;2023-07-13T02:18:21;24.70;67.00
54485;DHT22;45006;56.958;24.166;2023-07-13T02:20:48;24.70;67.00
54485;DHT22;45006;56.958;24.166;2023-07-13T02:23:15;24.70;67.00
54485;DHT22;45006;56.958;24.166;2023-07-13T02:25:42;24.70;67.00
54485;DHT22;45006;56.958;24.166;2023-07-13T02:28:09;24.70;67.00
54485;DHT22;45006;56.958;24.166;2023-07-13T02:30:36;24.70;67.00
54485;DHT22;45006;56.958;24.166;2023-07-13T02:33:03;24.70;67.00
54485;DHT22;45006;56.958;24.166;2023-07-13T02:35:30;24.70;67.00
54485;DHT22;45006;56.958;24.166;2023-07-13T02:37:57;24.70;67.00
54485;DHT22;45006;56.958;24.166;2023-07-13T02:40:24;24.70;67.00
54485;DHT22;45006;56.958;24.166;2023-07-13T02:42:51;24.70;67.00
54485;DHT22;45006;56.958;24.166;2023-07-13T02:45:18;24.70;67.00
54485;DHT22;45006;56.958;24.166;2023-07-13T02:47:45;24.70;67.00
54485;DHT22;45006;56.958;24.166;2023-07-13T02:50:12;24.70;67.00
54485;DHT22;45006;56.958;24.166;2023-07-13T02:52:39;24.70;67.00
54485;DHT22;45006;56.958;24.166;2023-07-13T02:55:09;24.70;66.90
54485;DHT22;45006;56.958;24.166;2023-07-13T02:57:36;24.70;67.00
54485;DHT22;45006;56.958;24.166;2023-07-13T03:00:04;24.70;67.00
54485;DHT22;45006;56.958;24.166;2023-07-13T03:02:33;24.70;67.00
54485;DHT22;45006;56.958;24.166;2023-07-13T03:05:00;24.70;67.00
54485;DHT22;45006;56.958;24.166;2023-07-13T03:07:27;24.70;66.90
54485;DHT22;45006;56.958;24.166;2023-07-13T03:09:57;24.70;66.90
54485;DHT22;45006;56.958;24.166;2023-07-13T03:12:24;24.70;66.90
54485;DHT22;45006;56.958;24.166;2023-07-13T03:14:51;24.70;67.00
54485;DHT22;45006;56.958;24.166;2023-07-13T03:17:18;24.70;67.00
54485;DHT22;45006;56.958;24.166;2023-07-13T03:19:46;24.70;66.90
54485;DHT22;45006;56.958;24.166;2023-07-13T03:22:19;24.70;67.00
54485;DHT22;45006;56.958;24.166;2023-07-13T03:24:46;24.70;66.90
54485;DHT22;45006;56.958;24.166;2023-07-13T03:27:14;24.70;66.90
54485;DHT22;45006;56.958;24.166;2023-07-13T03:29:41;24.70;67.00
54485;DHT22;45006;56.958;24.166;2023-07-13T03:32:08;24.70;67.00
54485;DHT22;45006;56.958;24.166;2023-07-13T03:34:35;24.70;66.90
54485;DHT22;45006;56.958;24.166;2023-07-13T03:37:03;24.70;66.90
54485;DHT22;45006;56.958;24.166;2023-07-13T03:39:30;24.70;66.90
54485;DHT22;45006;56.958;24.166;2023-07-13T03:41:56;24.70;66.90
54485;DHT22;45006;56.958;24.166;2023-07-13T03:44:24;24.70;66.90
54485;DHT22;45006;56.958;24.166;2023-07-13T03:46:52;24.70;66.90
54485;DHT22;45006;56.958;24.166;2023-07-13T03:49:20;24.70;66.90
54485;DHT22;45006;56.958;24.166;2023-07-13T03:51:47;24.70;66.90
54485;DHT22;45006;56.958;24.166;2023-07-13T03:54:16;24.70;66.90
54485;DHT22;45006;56.958;24.166;2023-07-13T03:56:43;24.70;66.90
54485;DHT22;45006;56.958;24.166;2023-07-13T03:59:10;24.70;67.00
54485;DHT22;45006;56.958;24.166;2023-07-13T04:01:37;24.70;66.90
54485;DHT22;45006;56.958;24.166;2023-07-13T04:04:04;24.70;66.90
54485;DHT22;45006;56.958;24.166;2023-07-13T04:06:32;24.70;66.90
54485;DHT22;45006;56.958;24.166;2023-07-13T04:09:00;24.70;66.90
54485;DHT22;45006;56.958;24.166;2023-07-13T04:11:29;24.70;66.90
54485;DHT22;45006;56.958;24.166;2023-07-13T04:13:58;24.70;66.90
54485;DHT22;45006;56.958;24.166;2023-07-13T04:16:25;24.70;67.50
54485;DHT22;45006;56.958;24.166;2023-07-13T04:18:56;24.70;66.90
54485;DHT22;45006;56.958;24.166;2023-07-13T04:21:28;24.70;66.90
54485;DHT22;45006;56.958;24.166;2023-07-13T04:23:55;24.70;66.80
54485;DHT22;45006;56.958;24.166;2023-07-13T04:26:23;24.70;66.90
54485;DHT22;45006;56.958;24.166;2023-07-13T04:28:50;24.70;66.90
54485;DHT22;45006;56.958;24.166;2023-07-13T04:31:19;24.70;66.80
54485;DHT22;45006;56.958;24.166;2023-07-13T04:33:47;24.70;66.80
54485;DHT22;45006;56.958;24.166;2023-07-13T04:36:16;24.70;66.80
54485;DHT22;45006;56.958;24.166;2023-07-13T04:38:43;24.70;66.80
54485;DHT22;45006;56.958;24.166;2023-07-13T04:41:12;24.70;66.80
54485;DHT22;45006;56.958;24.166;2023-07-13T04:43:39;24.70;66.80
54485;DHT22;45006;56.958;24.166;2023-07-13T04:46:09;24.70;66.80
54485;DHT22;45006;56.958;24.166;2023-07-13T04:48:38;24.70;66.80
54485;DHT22;45006;56.958;24.166;2023-07-13T04:51:06;24.70;66.80
54485;DHT22;45006;56.958;24.166;2023-07-13T04:53:33;24.70;66.80
54485;DHT22;45006;56.958;24.166;2023-07-13T04:56:02;24.70;66.80
54485;DHT22;45006;56.958;24.166;2023-07-13T04:58:29;24.70;66.80
54485;DHT22;45006;56.958;24.166;2023-07-13T05:01:01;24.70;66.70
54485;DHT22;45006;56.958;24.166;2023-07-13T05:03:29;24.70;66.60
54485;DHT22;45006;56.958;24.166;2023-07-13T05:05:59;24.70;66.60
54485;DHT22;45006;56.958;24.166;2023-07-13T05:08:27;24.70;66.60
54485;DHT22;45006;56.958;24.166;2023-07-13T05:10:54;24.70;66.60
54485;DHT22;45006;56.958;24.166;2023-07-13T05:13:22;24.70;66.50
54485;DHT22;45006;56.958;24.166;2023-07-13T05:16:00;24.70;66.50
54485;DHT22;45006;56.958;24.166;2023-07-13T05:18:28;24.70;66.40
54485;DHT22;45006;56.958;24.166;2023-07-13T05:21:05;24.70;66.50
54485;DHT22;45006;56.958;24.166;2023-07-13T05:23:33;24.70;66.50
54485;DHT22;45006;56.958;24.166;2023-07-13T05:26:02;24.70;66.50
54485;DHT22;45006;56.958;24.166;2023-07-13T05:28:32;24.80;66.50
54485;DHT22;45006;56.958;24.166;2023-07-13T05:30:59;24.80;66.40
54485;DHT22;45006;56.958;24.166;2023-07-13T05:33:27;24.80;66.30
54485;DHT22;45006;56.958;24.166;2023-07-13T05:35:54;24.80;66.20
54485;DHT22;45006;56.958;24.166;2023-07-13T05:38:21;24.90;66.20
54485;DHT22;45006;56.958;24.166;2023-07-13T05:40:50;24.90;66.10
54485;DHT22;45006;56.958;24.166;2023-07-13T05:43:17;24.90;66.00
54485;DHT22;45006;56.958;24.166;2023-07-13T05:45:44;25.00;65.80
54485;DHT22;45006;56.958;24.166;2023-07-13T05:48:11;25.00;65.70
54485;DHT22;45006;56.958;24.166;2023-07-13T05:50:38;25.00;65.70
54485;DHT22;45006;56.958;24.166;2023-07-13T05:53:07;25.00;65.70
54485;DHT22;45006;56.958;24.166;2023-07-13T05:55:34;25.00;65.80
54485;DHT22;45006;56.958;24.166;2023-07-13T05:58:03;25.00;65.80
54485;DHT22;45006;56.958;24.166;2023-07-13T06:00:30;25.00;65.90
54485;DHT22;45006;56.958;24.166;2023-07-13T06:02:57;25.00;65.90
54485;DHT22;45006;56.958;24.166;2023-07-13T06:05:25;25.00;66.00
54485;DHT22;45006;56.958;24.166;2023-07-13T06:07:54;25.00;66.00
54485;DHT22;45006;56.958;24.166;2023-07-13T06:10:21;24.90;66.00
54485;DHT22;45006;56.958;24.166;2023-07-13T06:12:48;24.90;65.90
54485;DHT22;45006;56.958;24.166;2023-07-13T06:15:15;24.90;66.00
54485;DHT22;45006;56.958;24.166;2023-07-13T06:17:44;24.90;66.00
54485;DHT22;45006;56.958;24.166;2023-07-13T06:20:12;24.90;66.00
54485;DHT22;45006;56.958;24.166;2023-07-13T06:22:42;24.90;66.10
54485;DHT22;45006;56.958;24.166;2023-07-13T06:25:09;24.90;66.00
54485;DHT22;45006;56.958;24.166;2023-07-13T06:27:36;24.90;66.00
54485;DHT22;45006;56.958;24.166;2023-07-13T06:30:03;24.90;66.00
54485;DHT22;45006;56.958;24.166;2023-07-13T06:32:31;24.90;65.90
54485;DHT22;45006;56.958;24.166;2023-07-13T06:34:58;24.90;65.90
54485;DHT22;45006;56.958;24.166;2023-07-13T06:37:25;24.90;65.90
54485;DHT22;45006;56.958;24.166;2023-07-13T06:39:52;24.90;65.90
54485;DHT22;45006;56.958;24.166;2023-07-13T06:42:19;24.90;65.90
54485;DHT22;45006;56.958;24.166;2023-07-13T06:44:46;24.90;65.90
54485;DHT22;45006;56.958;24.166;2023-07-13T06:47:13;24.90;65.90
54485;DHT22;45006;56.958;24.166;2023-07-13T06:49:40;24.90;65.90
54485;DHT22;45006;56.958;24.166;2023-07-13T06:52:08;24.90;65.90
54485;DHT22;45006;56.958;24.166;2023-07-13T06:54:35;24.90;65.90
54485;DHT22;45006;56.958;24.166;2023-07-13T06:57:02;24.90;66.20
54485;DHT22;45006;56.958;24.166;2023-07-13T06:59:29;24.90;65.90
54485;DHT22;45006;56.958;24.166;2023-07-13T07:01:56;24.90;65.90
54485;DHT22;45006;56.958;24.166;2023-07-13T07:04:23;24.90;65.90
54485;DHT22;45006;56.958;24.166;2023-07-13T07:06:50;24.90;65.80
54485;DHT22;45006;56.958;24.166;2023-07-13T07:09:17;24.90;65.90
54485;DHT22;45006;56.958;24.166;2023-07-13T07:11:44;24.90;65.90
54485;DHT22;45006;56.958;24.166;2023-07-13T07:14:28;24.90;65.80
54485;DHT22;45006;56.958;24.166;2023-07-13T07:16:56;24.90;65.70
54485;DHT22;45006;56.958;24.166;2023-07-13T07:19:25;24.90;65.80
54485;DHT22;45006;56.958;24.166;2023-07-13T07:21:52;24.90;65.80
54485;DHT22;45006;56.958;24.166;2023-07-13T07:24:19;24.90;65.80
54485;DHT22;45006;56.958;24.166;2023-07-13T07:26:47;24.90;65.80
54485;DHT22;45006;56.958;24.166;2023-07-13T07:29:16;24.90;65.80
54485;DHT22;45006;56.958;24.166;2023-07-13T07:31:46;24.90;65.90
54485;DHT22;45006;56.958;24.166;2023-07-13T07:34:29;24.90;65.80
54485;DHT22;45006;56.958;24.166;2023-07-13T07:37:00;25.00;65.80
54485;DHT22;45006;56.958;24.166;2023-07-13T07:39:33;25.00;65.80
54485;DHT22;45006;56.958;24.166;2023-07-13T07:42:00;24.90;65.70
54485;DHT22;45006;56.958;24.166;2023-07-13T07:44:27;25.00;65.70
54485;DHT22;45006;56.958;24.166;2023-07-13T07:46:55;25.00;65.70
54485;DHT22;45006;56.958;24.166;2023-07-13T07:49:22;25.00;65.70
54485;DHT22;45006;56.958;24.166;2023-07-13T07:51:49;25.00;65.70
54485;DHT22;45006;56.958;24.166;2023-07-13T07:54:17;25.00;65.80
54485;DHT22;45006;56.958;24.166;2023-07-13T07:57:04;24.90;65.80
54485;DHT22;45006;56.958;24.166;2023-07-13T07:59:34;25.00;65.70
54485;DHT22;45006;56.958;24.166;2023-07-13T08:02:04;25.00;65.80
54485;DHT22;45006;56.958;24.166;2023-07-13T08:04:34;24.90;65.80
54485;DHT22;45006;56.958;24.166;2023-07-13T08:07:04;24.90;65.80
54485;DHT22;45006;56.958;24.166;2023-07-13T08:09:31;25.00;65.80
54485;DHT22;45006;56.958;24.166;2023-07-13T08:12:00;25.00;65.90
54485;DHT22;45006;56.958;24.166;2023-07-13T08:14:30;25.00;65.80
54485;DHT22;45006;56.958;24.166;2023-07-13T08:17:16;25.00;65.80
54485;DHT22;45006;56.958;24.166;2023-07-13T08:19:43;25.00;65.70
54485;DHT22;45006;56.958;24.166;2023-07-13T08:22:10;25.00;65.80
54485;DHT22;45006;56.958;24.166;2023-07-13T08:24:38;25.00;65.70
54485;DHT22;45006;56.958;24.166;2023-07-13T08:27:05;25.00;65.70
54485;DHT22;45006;56.958;24.166;2023-07-13T08:29:32;25.00;65.70
54485;DHT22;45006;56.958;24.166;2023-07-13T08:31:59;25.00;65.70
54485;DHT22;45006;56.958;24.166;2023-07-13T08:34:27;25.00;65.70
54485;DHT22;45006;56.958;24.166;2023-07-13T08:36:54;25.00;65.70
54485;DHT22;45006;56.958;24.166;2023-07-13T08:39:21;25.00;65.70
54485;DHT22;45006;56.958;24.166;2023-07-13T08:41:56;25.00;65.70
54485;DHT22;45006;56.958;24.166;2023-07-13T08:44:36;25.00;65.70
54485;DHT22;45006;56.958;24.166;2023-07-13T08:47:05;25.00;65.70
54485;DHT22;45006;56.958;24.166;2023-07-13T08:49:34;25.00;65.70
54485;DHT22;45006;56.958;24.166;2023-07-13T08:52:05;25.00;65.70
54485;DHT22;45006;56.958;24.166;2023-07-13T08:54:41;25.00;65.70
54485;DHT22;45006;56.958;24.166;2023-07-13T08:57:20;25.00;65.70
54485;DHT22;45006;56.958;24.166;2023-07-13T08:59:48;25.10;65.80
54485;DHT22;45006;56.958;24.166;2023-07-13T09:10:27;25.10;65.80
54485;DHT22;45006;56.958;24.166;2023-07-13T09:15:31;25.10;65.80
54485;DHT22;45006;56.958;24.166;2023-07-13T09:20:49;25.10;65.80
54485;DHT22;45006;56.958;24.166;2023-07-13T09:23:22;25.10;65.70
54485;DHT22;45006;56.958;24.166;2023-07-13T09:25:54;25.10;65.70
54485;DHT22;45006;56.958;24.166;2023-07-13T09:28:28;25.10;65.80
54485;DHT22;45006;56.958;24.166;2023-07-13T09:31:33;25.10;65.80
54485;DHT22;45006;56.958;24.166;2023-07-13T09:34:01;25.00;65.70
54485;DHT22;45006;56.958;24.166;2023-07-13T09:36:33;25.10;65.80
54485;DHT22;45006;56.958;24.166;2023-07-13T09:39:13;25.10;65.80
54485;DHT22;45006;56.958;24.166;2023-07-13T09:42:01;25.10;65.70
54485;DHT22;45006;56.958;24.166;2023-07-13T09:44:34;25.10;65.70
54485;DHT22;45006;56.958;24.166;2023-07-13T09:47:03;25.10;65.70
54485;DHT22;45006;56.958;24.166;2023-07-13T09:49:36;25.10;65.70
54485;DHT22;45006;56.958;24.166;2023-07-13T09:52:06;25.10;65.60
54485;DHT22;45006;56.958;24.166;2023-07-13T09:54:35;25.10;65.70
54485;DHT22;45006;56.958;24.166;2023-07-13T09:57:15;25.10;65.70
54485;DHT22;45006;56.958;24.166;2023-07-13T09:59:48;25.10;65.70
54485;DHT22;45006;56.958;24.166;2023-07-13T10:02:33;25.10;65.70
54485;DHT22;45006;56.958;24.166;2023-07-13T10:05:05;25.10;65.70
54485;DHT22;45006;56.958;24.166;2023-07-13T10:07:37;25.10;65.70
54485;DHT22;45006;56.958;24.166;2023-07-13T10:10:22;25.00;65.70
54485;DHT22;45006;56.958;24.166;2023-07-13T10:12:50;25.10;65.80
54485;DHT22;45006;56.958;24.166;2023-07-13T10:15:23;25.10;65.80
54485;DHT22;45006;56.958;24.166;2023-07-13T10:17:54;25.10;65.80
54485;DHT22;45006;56.958;24.166;2023-07-13T10:20:27;25.10;65.80
54485;DHT22;45006;56.958;24.166;2023-07-13T10:23:01;25.10;65.80
54485;DHT22;45006;56.958;24.166;2023-07-13T10:25:34;25.10;65.80
54485;DHT22;45006;56.958;24.166;2023-07-13T10:28:27;25.10;65.80
54485;DHT22;45006;56.958;24.166;2023-07-13T10:30:56;25.00;65.70
54485;DHT22;45006;56.958;24.166;2023-07-13T10:33:25;25.10;65.80
54485;DHT22;45006;56.958;24.166;2023-07-13T10:36:14;25.10;65.80
54485;DHT22;45006;56.958;24.166;2023-07-13T10:38:47;25.10;65.80
54485;DHT22;45006;56.958;24.166;2023-07-13T10:41:21;25.00;65.70
54485;DHT22;45006;56.958;24.166;2023-07-13T10:43:55;25.00;65.70
54485;DHT22;45006;56.958;24.166;2023-07-13T10:46:26;25.10;65.80
54485;DHT22;45006;56.958;24.166;2023-07-13T10:49:04;25.10;65.80
54485;DHT22;45006;56.958;24.166;2023-07-13T10:51:31;25.10;65.80
54485;DHT22;45006;56.958;24.166;2023-07-13T10:56:46;25.10;65.80
54485;DHT22;45006;56.958;24.166;2023-07-13T10:59:24;25.10;65.80
54485;DHT22;45006;56.958;24.166;2023-07-13T11:02:09;25.10;65.80
54485;DHT22;45006;56.958;24.166;2023-07-13T11:04:43;25.10;65.80
54485;DHT22;45006;56.958;24.166;2023-07-13T11:07:31;25.10;65.80
54485;DHT22;45006;56.958;24.166;2023-07-13T11:10:50;25.10;65.80
54485;DHT22;45006;56.958;24.166;2023-07-13T11:13:37;25.10;65.80
54485;DHT22;45006;56.958;24.166;2023-07-13T11:16:36;25.10;65.80
54485;DHT22;45006;56.958;24.166;2023-07-13T11:25:20;25.10;65.80
54485;DHT22;45006;56.958;24.166;2023-07-13T11:27:52;25.10;65.80
54485;DHT22;45006;56.958;24.166;2023-07-13T11:38:41;25.10;65.80
54485;DHT22;45006;56.958;24.166;2023-07-13T11:41:36;25.20;65.90
54485;DHT22;45006;56.958;24.166;2023-07-13T11:44:18;25.20;65.80
54485;DHT22;45006;56.958;24.166;2023-07-13T11:46:53;25.20;65.80
54485;DHT22;45006;56.958;24.166;2023-07-13T11:49:26;25.20;65.80
54485;DHT22;45006;56.958;24.166;2023-07-13T11:51:54;25.20;65.80
54485;DHT22;45006;56.958;24.166;2023-07-13T11:57:26;25.20;65.90
54485;DHT22;45006;56.958;24.166;2023-07-13T11:59:44;25.20;65.80
54485;DHT22;45006;56.958;24.166;2023-07-13T12:02:33;25.20;65.90
54485;DHT22;45006;56.958;24.166;2023-07-13T12:05:02;25.20;65.80
54485;DHT22;45006;56.958;24.166;2023-07-13T12:07:33;25.20;65.90
54485;DHT22;45006;56.958;24.166;2023-07-13T12:12:52;25.20;65.80
54485;DHT22;45006;56.958;24.166;2023-07-13T12:15:20;25.20;65.90
54485;DHT22;45006;56.958;24.166;2023-07-13T12:17:49;25.20;65.90
54485;DHT22;45006;56.958;24.166;2023-07-13T12:20:27;25.20;65.90
54485;DHT22;45006;56.958;24.166;2023-07-13T12:22:56;25.20;65.90
54485;DHT22;45006;56.958;24.166;2023-07-13T12:25:24;25.20;65.90
54485;DHT22;45006;56.958;24.166;2023-07-13T12:27:52;25.20;65.90
54485;DHT22;45006;56.958;24.166;2023-07-13T12:30:29;25.20;65.90
54485;DHT22;45006;56.958;24.166;2023-07-13T12:33:07;25.20;66.00
54485;DHT22;45006;56.958;24.166;2023-07-13T12:35:46;25.20;65.90
54485;DHT22;45006;56.958;24.166;2023-07-13T12:38:15;25.20;65.90
54485;DHT22;45006;56.958;24.166;2023-07-13T12:40:42;25.20;65.80
54485;DHT22;45006;56.958;24.166;2023-07-13T12:43:13;25.20;65.90
54485;DHT22;45006;56.958;24.166;2023-07-13T12:45:57;25.20;65.80
54485;DHT22;45006;56.958;24.166;2023-07-13T12:48:25;25.20;65.80
54485;DHT22;45006;56.958;24.166;2023-07-13T12:51:13;25.20;65.90
54485;DHT22;45006;56.958;24.166;2023-07-13T12:53:47;25.20;65.90
54485;DHT22;45006;56.958;24.166;2023-07-13T12:56:26;25.20;65.80
54485;DHT22;45006;56.958;24.166;2023-07-13T12:58:58;25.20;65.80
54485;DHT22;45006;56.958;24.166;2023-07-13T13:01:27;25.30;65.90
54485;DHT22;45006;56.958;24.166;2023-07-13T13:03:55;25.30;65.90
54485;DHT22;45006;56.958;24.166;2023-07-13T13:06:28;25.30;65.90
54485;DHT22;45006;56.958;24.166;2023-07-13T13:08:57;25.30;65.90
54485;DHT22;45006;56.958;24.166;2023-07-13T13:11:26;25.30;65.90
54485;DHT22;45006;56.958;24.166;2023-07-13T13:13:54;25.30;65.90
54485;DHT22;45006;56.958;24.166;2023-07-13T13:16:35;25.30;65.90
54485;DHT22;45006;56.958;24.166;2023-07-13T13:21:43;25.30;65.90
54485;DHT22;45006;56.958;24.166;2023-07-13T13:24:19;25.30;65.90
54485;DHT22;45006;56.958;24.166;2023-07-13T13:26:48;25.30;66.00
54485;DHT22;45006;56.958;24.166;2023-07-13T13:29:20;25.30;66.00
54485;DHT22;45006;56.958;24.166;2023-07-13T13:31:47;25.30;66.00
54485;DHT22;45006;56.958;24.166;2023-07-13T13:34:17;25.30;66.00
54485;DHT22;45006;56.958;24.166;2023-07-13T13:36:46;25.30;66.00
54485;DHT22;45006;56.958;24.166;2023-07-13T13:41:51;25.40;66.10
54485;DHT22;45006;56.958;24.166;2023-07-13T13:44:21;25.40;66.10
54485;DHT22;45006;56.958;24.166;2023-07-13T13:46:51;25.40;66.10
54485;DHT22;45006;56.958;24.166;2023-07-13T13:49:21;25.40;66.10
54485;DHT22;45006;56.958;24.166;2023-07-13T13:51:50;25.40;66.10
54485;DHT22;45006;56.958;24.166;2023-07-13T13:54:19;25.40;66.10
54485;DHT22;45006;56.958;24.166;2023-07-13T13:56:49;25.40;66.10
54485;DHT22;45006;56.958;24.166;2023-07-13T13:59:16;25.40;66.10
54485;DHT22;45006;56.958;24.166;2023-07-13T14:01:46;25.40;66.10
54485;DHT22;45006;56.958;24.166;2023-07-13T14:04:18;25.40;66.10
54485;DHT22;45006;56.958;24.166;2023-07-13T14:06:45;25.40;66.10
54485;DHT22;45006;56.958;24.166;2023-07-13T14:09:15;25.40;66.20
54485;DHT22;45006;56.958;24.166;2023-07-13T14:11:43;25.40;66.20
54485;DHT22;45006;56.958;24.166;2023-07-13T14:14:17;25.40;66.20
54485;DHT22;45006;56.958;24.166;2023-07-13T14:16:45;25.40;66.20
54485;DHT22;45006;56.958;24.166;2023-07-13T14:19:14;25.40;66.20
54485;DHT22;45006;56.958;24.166;2023-07-13T14:21:41;25.40;66.20
54485;DHT22;45006;56.958;24.166;2023-07-13T14:24:08;25.40;66.20
54485;DHT22;45006;56.958;24.166;2023-07-13T14:26:40;25.40;66.20
54485;DHT22;45006;56.958;24.166;2023-07-13T14:29:16;25.40;66.30
54485;DHT22;45006;56.958;24.166;2023-07-13T14:31:48;25.40;66.30
54485;DHT22;45006;56.958;24.166;2023-07-13T14:34:15;25.40;66.30
54485;DHT22;45006;56.958;24.166;2023-07-13T14:36:48;25.40;66.20
54485;DHT22;45006;56.958;24.166;2023-07-13T14:39:18;25.40;66.30
54485;DHT22;45006;56.958;24.166;2023-07-13T14:41:46;25.40;66.30
54485;DHT22;45006;56.958;24.166;2023-07-13T14:44:15;25.40;66.30
54485;DHT22;45006;56.958;24.166;2023-07-13T14:46:44;25.40;66.30
54485;DHT22;45006;56.958;24.166;2023-07-13T14:51:48;25.40;66.30
54485;DHT22;45006;56.958;24.166;2023-07-13T14:54:15;25.40;66.30
54485;DHT22;45006;56.958;24.166;2023-07-13T14:56:44;25.40;66.30
54485;DHT22;45006;56.958;24.166;2023-07-13T14:59:11;25.40;66.40
54485;DHT22;45006;56.958;24.166;2023-07-13T15:01:39;25.30;66.30
54485;DHT22;45006;56.958;24.166;2023-07-13T15:04:07;25.40;66.30
54485;DHT22;45006;56.958;24.166;2023-07-13T15:06:54;25.30;66.30
54485;DHT22;45006;56.958;24.166;2023-07-13T15:09:22;25.30;66.30
54485;DHT22;45006;56.958;24.166;2023-07-13T15:11:54;25.30;66.30
54485;DHT22;45006;56.958;24.166;2023-07-13T15:14:22;25.30;66.30
54485;DHT22;45006;56.958;24.166;2023-07-13T15:16:55;25.30;66.30
54485;DHT22;45006;56.958;24.166;2023-07-13T15:19:23;25.30;66.40
54485;DHT22;45006;56.958;24.166;2023-07-13T15:21:55;25.30;66.40
54485;DHT22;45006;56.958;24.166;2023-07-13T15:24:24;25.30;66.40
54485;DHT22;45006;56.958;24.166;2023-07-13T15:26:52;25.30;66.40
54485;DHT22;45006;56.958;24.166;2023-07-13T15:29:19;25.30;66.40
54485;DHT22;45006;56.958;24.166;2023-07-13T15:31:46;25.30;66.40
54485;DHT22;45006;56.958;24.166;2023-07-13T15:34:15;25.30;66.40
54485;DHT22;45006;56.958;24.166;2023-07-13T15:36:43;25.30;66.40
54485;DHT22;45006;56.958;24.166;2023-07-13T15:39:16;25.30;66.40
54485;DHT22;45006;56.958;24.166;2023-07-13T15:41:47;25.30;66.40
54485;DHT22;45006;56.958;24.166;2023-07-13T15:44:28;25.30;66.50
54485;DHT22;45006;56.958;24.166;2023-07-13T15:46:58;25.30;66.40
54485;DHT22;45006;56.958;24.166;2023-07-13T15:49:27;25.30;66.40
54485;DHT22;45006;56.958;24.166;2023-07-13T15:51:58;25.30;66.50
54485;DHT22;45006;56.958;24.166;2023-07-13T15:54:25;25.30;66.50
54485;DHT22;45006;56.958;24.166;2023-07-13T15:56:54;25.30;66.50
54485;DHT22;45006;56.958;24.166;2023-07-13T15:59:25;25.30;66.50
54485;DHT22;45006;56.958;24.166;2023-07-13T16:01:53;25.30;67.10
54485;DHT22;45006;56.958;24.166;2023-07-13T16:04:20;25.20;66.40
54485;DHT22;45006;56.958;24.166;2023-07-13T16:06:47;25.20;66.40
54485;DHT22;45006;56.958;24.166;2023-07-13T16:09:21;25.20;66.50
54485;DHT22;45006;56.958;24.166;2023-07-13T16:11:51;25.20;66.50
54485;DHT22;45006;56.958;24.166;2023-07-13T16:14:22;25.20;66.50
54485;DHT22;45006;56.958;24.166;2023-07-13T16:16:51;25.20;66.60
54485;DHT22;45006;56.958;24.166;2023-07-13T16:19:23;25.20;66.60